Latest Coastal Weather Observations for Green Cape

IDN60701

Issued at 11:31 pm EDT Friday 24 February 2017 (issued every 10 minutes, with the page automatically refreshed every 10 minutes)

About coastal observations | Map of coastal stations | Coastal observations for NSW | Marine services | Other Formats
Station Details ID: 069137 Name: GREEN CAPE AWS Lat: -37.26 Lon: 150.05 Height: 19.4 m
Data from the previous 72 hours. | See also: Recent months at Green Cape
Date/Time
EDT
Temp
°C
Wind Pressure Rain since
9am
mm
Weather Cloud Vis
km
Sea
Height
m
Swell
Dir  Spd
kts
Gust
kts
hPa Trend Height
m
Period
s
Dir
24/11:30pm 17.3 WSW 13 16 1023.7 - 0.0 - - - - - - -
24/11:00pm 17.4 WSW 12 16 1023.9 - 0.0 - - - - - - -
24/10:30pm 17.6 WSW 12 15 1024.0 - 0.0 - - - - - - -
24/10:00pm 17.7 WSW 14 18 1024.1 - 0.0 - - - - - - -
24/09:30pm 17.7 WSW 12 18 1024.1 - 0.0 - - - - - - -
24/09:00pm 17.9 SW 12 16 1023.8 - 0.0 - - - - - - -
24/08:30pm 17.9 SW 16 22 1023.4 - 0.0 - - - - - - -
24/08:00pm 17.8 SW 20 24 1022.8 - 0.0 - - - - - - -
24/07:30pm 17.8 SSW 20 23 1022.6 - 0.0 - - - - - - -
24/07:00pm 18.3 SW 21 24 1022.3 - 0.0 - - - - - - -
24/06:30pm 18.3 SSW 21 27 1021.9 - 0.0 - - - - - - -
24/06:00pm 18.5 SSW 23 26 1021.3 - 0.0 - - - - - - -
24/05:30pm 18.7 SSW 25 28 1021.0 - 0.0 - - - - - - -
24/05:00pm 19.1 SSW 23 26 1020.8 - 0.0 - - - - - - -
24/04:30pm 19.3 SSW 23 27 1020.6 - 0.0 - - - - - - -
24/04:00pm 19.2 SSW 23 27 1020.7 - 0.0 - - - - - - -
24/03:30pm 19.3 SSW 25 28 1020.5 - 0.0 - - - - - - -
24/03:00pm 19.8 S 25 28 1020.7 - 0.0 - - - - - - -
24/02:30pm 21.7 S 22 25 1020.9 - 0.0 - - - - - - -
24/02:00pm 21.3 S 20 23 1021.2 - 0.0 - - - - - - -
24/01:30pm 21.3 S 21 24 1021.2 - 0.0 - - - - - - -
24/01:00pm 21.4 S 21 23 1021.3 - 0.0 - - - - - - -
24/12:30pm 20.9 S 18 20 1021.5 - 0.0 - - - - - - -
24/12:00pm 21.5 S 13 15 1021.8 - 0.0 - - - - - - -
24/11:30am 20.8 S 13 15 1021.9 - 0.0 - - - - - - -
24/11:00am 20.6 SSW 11 13 1022.1 - 0.0 - - - - - - -
24/10:30am 19.8 WSW 6 8 1022.3 - 0.0 - - - - - - -
24/10:00am 19.5 WSW 5 7 1022.3 - 0.0 - - - - - - -
24/09:30am 18.9 W 7 9 1022.3 - 0.0 - - - - - - -
24/09:00am 18.8 WSW 8 10 1021.9 - 0.0 - - - - - - -
24/08:30am 18.7 WSW 8 8 1021.8 - 0.0 - - - - - - -
24/08:00am 18.2 W 8 10 1021.8 - 0.0 - - - - - - -
24/07:30am 18.5 WSW 8 10 1021.6 - 0.0 - - - - - - -
24/07:00am 18.6 WSW 12 16 1021.4 - 0.0 - - - - - - -
24/06:30am 18.8 SW 14 16 1021.1 - 0.0 - - - - - - -
24/06:00am 18.7 SSW 13 15 1020.9 - 0.0 - - - - - - -
24/05:30am 18.5 SSW 14 17 1020.8 - 0.0 - - - - - - -
24/05:00am 18.6 SSW 14 16 1020.8 - 0.0 - - - - - - -
24/04:30am 18.7 SSW 14 16 1020.7 - 0.0 - - - - - - -
24/04:00am 18.8 SSW 15 17 1020.6 - 0.0 - - - - - - -
24/03:30am 18.7 SSW 14 15 1020.6 - 0.0 - - - - - - -
24/03:00am 18.6 WSW 8 12 1020.7 - 0.0 - - - - - - -
24/02:30am 18.7 W 8 10 1020.7 - 0.0 - - - - - - -
24/02:00am 18.8 W 7 9 1020.9 - 0.0 - - - - - - -
24/01:30am 19.1 WSW 9 11 1020.8 - 0.0 - - - - - - -
24/01:00am 19.3 SW 10 14 1020.8 - 0.0 - - - - - - -
24/12:30am 19.3 WSW 11 14 1020.9 - 0.0 - - - - - - -
24/12:00am 19.7 SW 15 19 1020.8 - 0.0 - - - - - - -
 
Date/Time
EDT
Temp
°C
Wind Pressure Rain since
9am
mm
Weather Cloud Vis
km
Sea
Height
m
Swell
Dir  Spd
kts
Gust
kts
hPa Trend Height
m
Period
s
Dir
23/11:30pm 19.5 SW 15 17 1020.7 - 0.0 - - - - - - -
23/11:00pm 19.4 SW 15 16 1020.7 - 0.0 - - - - - - -
23/10:30pm 19.6 SSW 14 16 1020.5 - 0.0 - - - - - - -
23/10:00pm 19.6 SSW 16 19 1020.5 - 0.0 - - - - - - -
23/09:30pm 19.8 SSW 16 18 1020.2 - 0.0 - - - - - - -
23/09:00pm 19.9 SSW 15 16 1020.0 - 0.0 - - - - - - -
23/08:30pm 20.1 SSW 15 17 1019.6 - 0.0 - - - - - - -
23/08:00pm 20.3 S 15 18 1019.0 - 0.0 - - - - - - -
23/07:30pm 20.5 S 16 19 1018.5 - 0.0 - - - - - - -
23/07:00pm 20.8 S 17 20 1018.1 - 0.0 - - - - - - -
23/06:30pm 21.1 S 19 21 1017.8 - 0.0 - - - - - - -
23/06:00pm 21.4 S 21 24 1017.4 - 0.0 - - - - - - -
23/05:30pm 21.9 S 20 23 1017.1 - 0.0 - - - - - - -
23/05:00pm 22.0 S 20 23 1016.8 - 0.0 - - - - - - -
23/04:30pm 22.6 S 19 22 1016.5 - 0.0 - - - - - - -
23/04:00pm 22.5 S 19 22 1016.6 - 0.0 - - - - - - -
23/03:30pm 23.0 S 19 21 1016.1 - 0.0 - - - - - - -
23/03:00pm 24.0 S 18 21 1016.3 - 0.0 - - - - - - -
23/02:30pm 23.4 S 18 21 1016.3 - 0.0 - - - - - - -
23/02:00pm 24.4 S 17 21 1016.2 - 0.0 - - - - - - -
23/01:30pm 24.9 S 17 20 1016.1 - 0.0 - - - - - - -
23/01:10pm 25.1 S 11 23 1016.1 - 0.0 - - - - - - -
23/01:00pm 26.6 N 3 5 1016.2 - 0.0 - - - - - - -
23/12:30pm 25.2 N 9 10 1016.0 - 0.0 - - - - - - -
23/12:00pm 24.9 N 11 13 1015.9 - 0.0 - - - - - - -
23/11:30am 24.4 N 11 12 1016.0 - 0.0 - - - - - - -
23/11:00am 23.6 N 12 15 1015.9 - 0.0 - - - - - - -
23/10:30am 23.1 N 13 15 1015.8 - 0.0 - - - - - - -
23/10:00am 22.5 N 17 19 1015.7 - 0.0 - - - - - - -
23/09:30am 22.2 N 19 21 1015.5 - 0.0 - - - - - - -
23/09:00am 22.0 N 19 22 1015.2 - 0.0 - - - - - - -
23/08:30am 21.9 N 21 25 1014.9 - 0.0 - - - - - - -
23/08:00am 21.6 N 21 24 1014.8 - 0.0 - - - - - - -
23/07:30am 21.3 N 24 28 1014.4 - 0.0 - - - - - - -
23/07:00am 21.0 N 25 28 1014.1 - 0.0 - - - - - - -
23/06:30am 20.9 N 26 29 1013.9 - 0.0 - - - - - - -
23/06:00am 21.0 N 26 29 1013.8 - 0.0 - - - - - - -
23/05:30am 20.9 N 22 24 1013.9 - 0.0 - - - - - - -
23/05:00am 21.0 N 20 24 1013.9 - 0.0 - - - - - - -
23/04:30am 21.1 N 22 25 1013.8 - 0.0 - - - - - - -
23/04:00am 21.3 N 22 26 1013.8 - 0.0 - - - - - - -
23/03:30am 21.4 N 23 26 1013.8 - 0.0 - - - - - - -
23/03:00am 21.5 NNE 24 28 1014.0 - 0.0 - - - - - - -
23/02:30am 21.6 N 24 27 1014.3 - 0.0 - - - - - - -
23/02:00am 21.6 N 23 27 1014.5 - 0.0 - - - - - - -
23/01:30am 21.7 N 24 28 1014.7 - 0.0 - - - - - - -
23/01:00am 21.8 N 27 32 1014.6 - 0.0 - - - - - - -
23/12:30am 21.8 NNE 23 27 1014.8 - 0.0 - - - - - - -
23/12:00am 21.8 NNE 22 26 1015.5 - 0.0 - - - - - - -
 
Date/Time
EDT
Temp
°C
Wind Pressure Rain since
9am
mm
Weather Cloud Vis
km
Sea
Height
m
Swell
Dir  Spd
kts
Gust
kts
hPa Trend Height
m
Period
s
Dir
22/11:30pm 21.9 NNE 23 27 1015.8 - 0.0 - - - - - - -
22/11:00pm 21.9 NNE 24 28 1015.9 - 0.0 - - - - - - -
22/10:30pm 22.0 NNE 27 31 1015.5 - 0.0 - - - - - - -
22/10:00pm 22.1 NNE 27 31 1015.4 - 0.0 - - - - - - -
22/09:30pm 22.0 N 27 32 1015.0 - 0.0 - - - - - - -
22/09:00pm 22.1 NNE 27 32 1014.4 - 0.0 - - - - - - -
22/08:30pm 22.1 NNE 26 31 1014.5 - 0.0 - - - - - - -
22/08:00pm 22.2 NNE 27 31 1014.1 - 0.0 - - - - - - -
22/07:30pm 22.4 NNE 26 30 1013.8 - 0.0 - - - - - - -
22/07:00pm 22.8 NNE 26 30 1013.8 - 0.0 - - - - - - -
22/06:30pm 23.1 NNE 23 27 1013.9 - 0.0 - - - - - - -
22/06:00pm 23.4 NNE 22 27 1013.7 - 0.0 - - - - - - -
22/05:30pm 23.6 NNE 28 32 1013.4 - 0.0 - - - - - - -
22/05:00pm 23.9 NNE 28 33 1013.2 - 0.0 - - - - - - -
22/04:30pm 24.2 NNE 27 33 1013.6 - 0.0 - - - - - - -
22/04:00pm 24.6 NNE 25 29 1013.9 - 0.0 - - - - - - -
22/03:30pm 24.6 NNE 24 27 1014.6 - 0.0 - - - - - - -
22/03:00pm 24.9 NNE 22 26 1015.0 - 0.0 - - - - - - -
22/02:30pm 24.7 NNE 21 25 1015.8 - 0.0 - - - - - - -
22/02:00pm 25.0 NNE 18 22 1016.2 - 0.0 - - - - - - -
22/01:30pm 24.7 NNE 18 21 1016.6 - 0.0 - - - - - - -
22/01:00pm 24.1 NNE 22 25 1016.8 - 0.0 - - - - - - -
22/12:30pm 23.7 NNE 20 24 1017.1 - 0.0 - - - - - - -
22/12:00pm 24.0 NNE 18 21 1017.5 - 0.0 - - - - - - -
22/11:30am 23.1 NNE 12 15 1018.3 - 0.0 - - - - - - -
22/11:00am 23.4 NNE 12 14 1018.6 - 0.0 - - - - - - -
22/10:30am 22.9 NNE 11 13 1018.9 - 0.0 - - - - - - -
22/10:00am 21.7 N 11 13 1019.2 - 0.0 - - - - - - -
22/09:30am 21.7 N 11 12 1019.4 - 0.0 - - - - - - -
22/09:00am 21.8 N 9 10 1019.4 - 0.0 - - - - - - -
22/08:30am 20.6 N 6 7 1019.5 - 0.0 - - - - - - -
22/08:00am 19.1 NW 3 4 1019.4 - 0.0 - - - - - - -
22/07:30am 17.9 WNW 4 5 1019.0 - 0.0 - - - - - - -
22/07:00am 17.2 W 5 6 1019.0 - 0.0 - - - - - - -
22/06:30am 17.4 W 5 7 1018.9 - 0.0 - - - - - - -
22/06:00am 19.1 NE 4 5 1018.7 - 0.0 - - - - - - -
22/05:30am 19.3 NNE 6 7 1018.6 - 0.0 - - - - - - -
22/05:00am 19.5 NE 10 11 1018.6 - 0.0 - - - - - - -
22/04:30am 19.5 NNE 8 10 1018.9 - 0.0 - - - - - - -
22/04:00am 19.3 NNE 9 10 1019.1 - 0.0 - - - - - - -
22/03:30am 19.2 NNE 10 11 1019.5 - 0.0 - - - - - - -
22/03:00am 19.1 NNE 8 10 1019.7 - 0.0 - - - - - - -
22/02:30am 18.9 NNE 9 10 1020.1 - 0.0 - - - - - - -
22/02:00am 19.0 NE 9 12 1020.3 - 0.0 - - - - - - -
22/01:30am 19.1 NE 9 11 1020.8 - 0.0 - - - - - - -
22/01:00am 18.9 NNE 9 12 1021.3 - 0.0 - - - - - - -
22/12:30am 18.9 NE 10 11 1021.4 - 0.0 - - - - - - -
22/12:00am 19.0 NE 9 11 1021.8 - 0.0 - - - - - - -

Other Formats:

Comma delimited format used in spreadsheet applications
http://www.bom.gov.au/fwo/IDN60701/IDN60701.94934.axf

JavaScript Object Notation format (JSON) in row-major order
http://www.bom.gov.au/fwo/IDN60701/IDN60701.94934.json